sensor_id;sensor_type;location;lat;lon;timestamp;temperature;humidity
19252;DHT22;9760;50.944;5.304;2024-01-30T00:01:43;9.10;99.90
19252;DHT22;9760;50.944;5.304;2024-01-30T00:04:08;9.10;99.90
19252;DHT22;9760;50.944;5.304;2024-01-30T00:06:34;9.00;99.90
19252;DHT22;9760;50.944;5.304;2024-01-30T00:09:00;9.10;99.90
19252;DHT22;9760;50.944;5.304;2024-01-30T00:11:25;9.00;99.90
19252;DHT22;9760;50.944;5.304;2024-01-30T00:13:52;9.10;99.90
19252;DHT22;9760;50.944;5.304;2024-01-30T00:16:24;9.10;99.90
19252;DHT22;9760;50.944;5.304;2024-01-30T00:18:54;9.10;99.90
19252;DHT22;9760;50.944;5.304;2024-01-30T00:21:20;9.10;99.90
19252;DHT22;9760;50.944;5.304;2024-01-30T00:23:46;9.20;99.90
19252;DHT22;9760;50.944;5.304;2024-01-30T00:26:12;9.20;99.90
19252;DHT22;9760;50.944;5.304;2024-01-30T00:28:40;9.10;99.90
19252;DHT22;9760;50.944;5.304;2024-01-30T00:31:06;9.10;99.90
19252;DHT22;9760;50.944;5.304;2024-01-30T00:33:32;9.20;99.90
19252;DHT22;9760;50.944;5.304;2024-01-30T00:35:57;9.20;99.90
19252;DHT22;9760;50.944;5.304;2024-01-30T00:38:23;9.20;99.90
19252;DHT22;9760;50.944;5.304;2024-01-30T00:40:49;9.20;99.90
19252;DHT22;9760;50.944;5.304;2024-01-30T00:43:15;9.20;99.90
19252;DHT22;9760;50.944;5.304;2024-01-30T00:45:41;9.20;99.90
19252;DHT22;9760;50.944;5.304;2024-01-30T00:48:07;9.20;99.90
19252;DHT22;9760;50.944;5.304;2024-01-30T00:50:32;9.20;99.90
19252;DHT22;9760;50.944;5.304;2024-01-30T00:52:58;9.20;99.90
19252;DHT22;9760;50.944;5.304;2024-01-30T00:55:24;9.20;99.90
19252;DHT22;9760;50.944;5.304;2024-01-30T00:57:49;9.20;99.90
19252;DHT22;9760;50.944;5.304;2024-01-30T01:00:15;9.20;99.90
19252;DHT22;9760;50.944;5.304;2024-01-30T01:02:43;9.10;99.90
19252;DHT22;9760;50.944;5.304;2024-01-30T01:05:09;9.10;99.90
19252;DHT22;9760;50.944;5.304;2024-01-30T01:07:34;9.10;99.90
19252;DHT22;9760;50.944;5.304;2024-01-30T01:10:00;9.10;99.90
19252;DHT22;9760;50.944;5.304;2024-01-30T01:12:26;9.10;99.90
19252;DHT22;9760;50.944;5.304;2024-01-30T01:14:51;9.10;99.90
19252;DHT22;9760;50.944;5.304;2024-01-30T01:17:17;9.10;99.90
19252;DHT22;9760;50.944;5.304;2024-01-30T01:19:44;9.10;99.90
19252;DHT22;9760;50.944;5.304;2024-01-30T01:22:10;9.00;99.90
19252;DHT22;9760;50.944;5.304;2024-01-30T01:24:36;9.00;99.90
19252;DHT22;9760;50.944;5.304;2024-01-30T01:27:02;9.00;99.90
19252;DHT22;9760;50.944;5.304;2024-01-30T01:29:27;9.00;99.90
19252;DHT22;9760;50.944;5.304;2024-01-30T01:31:56;9.10;99.90
19252;DHT22;9760;50.944;5.304;2024-01-30T01:34:22;9.00;99.90
19252;DHT22;9760;50.944;5.304;2024-01-30T01:36:49;9.00;99.90
19252;DHT22;9760;50.944;5.304;2024-01-30T01:39:15;9.00;99.90
19252;DHT22;9760;50.944;5.304;2024-01-30T01:41:41;9.00;99.90
19252;DHT22;9760;50.944;5.304;2024-01-30T01:44:08;9.00;99.90
19252;DHT22;9760;50.944;5.304;2024-01-30T01:46:34;9.00;99.90
19252;DHT22;9760;50.944;5.304;2024-01-30T01:49:04;9.00;99.90
19252;DHT22;9760;50.944;5.304;2024-01-30T01:51:31;9.00;99.90
19252;DHT22;9760;50.944;5.304;2024-01-30T01:53:59;9.00;99.90
19252;DHT22;9760;50.944;5.304;2024-01-30T01:56:27;9.10;99.90
19252;DHT22;9760;50.944;5.304;2024-01-30T01:58:55;9.10;99.90
19252;DHT22;9760;50.944;5.304;2024-01-30T02:01:21;9.10;99.90
19252;DHT22;9760;50.944;5.304;2024-01-30T02:03:48;9.10;99.90
19252;DHT22;9760;50.944;5.304;2024-01-30T02:06:14;9.10;99.90
19252;DHT22;9760;50.944;5.304;2024-01-30T02:08:41;9.10;99.90
19252;DHT22;9760;50.944;5.304;2024-01-30T02:11:07;9.10;99.90
19252;DHT22;9760;50.944;5.304;2024-01-30T02:13:33;9.10;99.90
19252;DHT22;9760;50.944;5.304;2024-01-30T02:15:58;9.10;99.90
19252;DHT22;9760;50.944;5.304;2024-01-30T02:18:24;9.10;99.90
19252;DHT22;9760;50.944;5.304;2024-01-30T02:20:54;9.10;99.90
19252;DHT22;9760;50.944;5.304;2024-01-30T02:23:26;9.10;99.90
19252;DHT22;9760;50.944;5.304;2024-01-30T02:25:52;9.20;99.90
19252;DHT22;9760;50.944;5.304;2024-01-30T02:28:19;9.20;99.90
19252;DHT22;9760;50.944;5.304;2024-01-30T02:30:46;9.20;99.90
19252;DHT22;9760;50.944;5.304;2024-01-30T02:33:12;9.20;99.90
19252;DHT22;9760;50.944;5.304;2024-01-30T02:35:38;9.20;99.90
19252;DHT22;9760;50.944;5.304;2024-01-30T02:38:04;9.20;99.90
19252;DHT22;9760;50.944;5.304;2024-01-30T02:40:30;9.20;99.90
19252;DHT22;9760;50.944;5.304;2024-01-30T02:42:57;9.20;99.90
19252;DHT22;9760;50.944;5.304;2024-01-30T02:45:23;9.20;99.90
19252;DHT22;9760;50.944;5.304;2024-01-30T02:47:48;9.20;99.90
19252;DHT22;9760;50.944;5.304;2024-01-30T02:50:14;9.20;99.90
19252;DHT22;9760;50.944;5.304;2024-01-30T02:52:40;9.30;99.90
19252;DHT22;9760;50.944;5.304;2024-01-30T02:55:06;9.30;99.90
19252;DHT22;9760;50.944;5.304;2024-01-30T02:57:32;9.40;99.90
19252;DHT22;9760;50.944;5.304;2024-01-30T02:59:58;9.40;99.90
19252;DHT22;9760;50.944;5.304;2024-01-30T03:02:24;9.40;99.90
19252;DHT22;9760;50.944;5.304;2024-01-30T03:04:49;9.40;99.90
19252;DHT22;9760;50.944;5.304;2024-01-30T03:07:15;9.40;99.90
19252;DHT22;9760;50.944;5.304;2024-01-30T03:09:44;9.40;99.90
19252;DHT22;9760;50.944;5.304;2024-01-30T03:12:09;9.50;99.90
19252;DHT22;9760;50.944;5.304;2024-01-30T03:14:35;9.40;99.90
19252;DHT22;9760;50.944;5.304;2024-01-30T03:17:01;9.50;99.90
19252;DHT22;9760;50.944;5.304;2024-01-30T03:19:26;9.50;99.90
19252;DHT22;9760;50.944;5.304;2024-01-30T03:21:52;9.50;99.90
19252;DHT22;9760;50.944;5.304;2024-01-30T03:24:18;9.40;99.90
19252;DHT22;9760;50.944;5.304;2024-01-30T03:26:43;9.50;99.90
19252;DHT22;9760;50.944;5.304;2024-01-30T03:29:09;9.40;99.90
19252;DHT22;9760;50.944;5.304;2024-01-30T03:31:35;9.40;99.90
19252;DHT22;9760;50.944;5.304;2024-01-30T03:34:01;9.40;99.90
19252;DHT22;9760;50.944;5.304;2024-01-30T03:36:27;9.40;99.90
19252;DHT22;9760;50.944;5.304;2024-01-30T03:38:53;9.40;99.90
19252;DHT22;9760;50.944;5.304;2024-01-30T03:41:18;9.30;99.90
19252;DHT22;9760;50.944;5.304;2024-01-30T03:43:44;9.30;99.90
19252;DHT22;9760;50.944;5.304;2024-01-30T03:46:12;9.30;99.90
19252;DHT22;9760;50.944;5.304;2024-01-30T03:48:37;9.40;99.90
19252;DHT22;9760;50.944;5.304;2024-01-30T03:51:04;9.30;99.90
19252;DHT22;9760;50.944;5.304;2024-01-30T03:53:30;9.30;99.90
19252;DHT22;9760;50.944;5.304;2024-01-30T03:55:56;9.30;99.90
19252;DHT22;9760;50.944;5.304;2024-01-30T03:58:22;9.30;99.90
19252;DHT22;9760;50.944;5.304;2024-01-30T04:00:48;9.30;99.90
19252;DHT22;9760;50.944;5.304;2024-01-30T04:03:17;9.40;99.90
19252;DHT22;9760;50.944;5.304;2024-01-30T04:05:43;9.40;99.90
19252;DHT22;9760;50.944;5.304;2024-01-30T04:08:09;9.40;99.90
19252;DHT22;9760;50.944;5.304;2024-01-30T04:10:35;9.40;99.90
19252;DHT22;9760;50.944;5.304;2024-01-30T04:13:01;9.40;99.90
19252;DHT22;9760;50.944;5.304;2024-01-30T04:15:27;9.50;99.90
19252;DHT22;9760;50.944;5.304;2024-01-30T04:17:53;9.50;99.90
19252;DHT22;9760;50.944;5.304;2024-01-30T04:20:19;9.50;99.90
19252;DHT22;9760;50.944;5.304;2024-01-30T04:22:45;9.60;99.90
19252;DHT22;9760;50.944;5.304;2024-01-30T04:25:14;9.60;99.90
19252;DHT22;9760;50.944;5.304;2024-01-30T04:27:39;9.60;99.90
19252;DHT22;9760;50.944;5.304;2024-01-30T04:30:05;9.60;99.90
19252;DHT22;9760;50.944;5.304;2024-01-30T04:32:32;9.60;99.90
19252;DHT22;9760;50.944;5.304;2024-01-30T04:34:58;9.60;99.90
19252;DHT22;9760;50.944;5.304;2024-01-30T04:37:24;9.60;99.90
19252;DHT22;9760;50.944;5.304;2024-01-30T04:39:50;9.60;99.90
19252;DHT22;9760;50.944;5.304;2024-01-30T04:42:17;9.50;99.90
19252;DHT22;9760;50.944;5.304;2024-01-30T04:44:42;9.50;99.90
19252;DHT22;9760;50.944;5.304;2024-01-30T04:47:08;9.50;99.90
19252;DHT22;9760;50.944;5.304;2024-01-30T04:49:36;9.50;99.90
19252;DHT22;9760;50.944;5.304;2024-01-30T04:52:02;9.50;99.90
19252;DHT22;9760;50.944;5.304;2024-01-30T04:54:28;9.50;99.90
19252;DHT22;9760;50.944;5.304;2024-01-30T04:56:53;9.50;99.90
19252;DHT22;9760;50.944;5.304;2024-01-30T04:59:19;9.50;99.90
19252;DHT22;9760;50.944;5.304;2024-01-30T05:01:45;9.50;99.90
19252;DHT22;9760;50.944;5.304;2024-01-30T05:04:10;9.50;99.90
19252;DHT22;9760;50.944;5.304;2024-01-30T05:06:36;9.50;99.90
19252;DHT22;9760;50.944;5.304;2024-01-30T05:09:02;9.50;99.90
19252;DHT22;9760;50.944;5.304;2024-01-30T05:11:31;9.50;99.90
19252;DHT22;9760;50.944;5.304;2024-01-30T05:13:56;9.50;99.90
19252;DHT22;9760;50.944;5.304;2024-01-30T05:16:22;9.50;99.90
19252;DHT22;9760;50.944;5.304;2024-01-30T05:18:48;9.50;99.90
19252;DHT22;9760;50.944;5.304;2024-01-30T05:21:13;9.50;99.90
19252;DHT22;9760;50.944;5.304;2024-01-30T05:23:39;9.50;99.90
19252;DHT22;9760;50.944;5.304;2024-01-30T05:26:07;9.50;99.90
19252;DHT22;9760;50.944;5.304;2024-01-30T05:28:33;9.50;99.90
19252;DHT22;9760;50.944;5.304;2024-01-30T05:30:59;9.50;99.90
19252;DHT22;9760;50.944;5.304;2024-01-30T05:33:24;9.60;99.90
19252;DHT22;9760;50.944;5.304;2024-01-30T05:35:50;9.50;99.90
19252;DHT22;9760;50.944;5.304;2024-01-30T05:38:16;9.50;99.90
19252;DHT22;9760;50.944;5.304;2024-01-30T05:40:41;9.50;99.90
19252;DHT22;9760;50.944;5.304;2024-01-30T05:43:07;9.50;99.90
19252;DHT22;9760;50.944;5.304;2024-01-30T05:45:33;9.50;99.90
19252;DHT22;9760;50.944;5.304;2024-01-30T05:48:00;9.50;99.90
19252;DHT22;9760;50.944;5.304;2024-01-30T05:50:26;9.60;99.90
19252;DHT22;9760;50.944;5.304;2024-01-30T05:52:52;9.50;99.90
19252;DHT22;9760;50.944;5.304;2024-01-30T05:55:18;9.50;99.90
19252;DHT22;9760;50.944;5.304;2024-01-30T05:57:43;9.60;99.90
19252;DHT22;9760;50.944;5.304;2024-01-30T06:00:09;9.60;99.90
19252;DHT22;9760;50.944;5.304;2024-01-30T06:02:35;9.60;99.90
19252;DHT22;9760;50.944;5.304;2024-01-30T06:05:01;9.60;99.90
19252;DHT22;9760;50.944;5.304;2024-01-30T06:07:27;9.60;99.90
19252;DHT22;9760;50.944;5.304;2024-01-30T06:09:52;9.70;99.90
19252;DHT22;9760;50.944;5.304;2024-01-30T06:12:18;9.70;99.90
19252;DHT22;9760;50.944;5.304;2024-01-30T06:14:44;9.70;99.90
19252;DHT22;9760;50.944;5.304;2024-01-30T06:17:10;9.70;99.90
19252;DHT22;9760;50.944;5.304;2024-01-30T06:19:37;9.70;99.90
19252;DHT22;9760;50.944;5.304;2024-01-30T06:22:04;9.70;99.90
19252;DHT22;9760;50.944;5.304;2024-01-30T06:24:30;9.70;99.90
19252;DHT22;9760;50.944;5.304;2024-01-30T06:26:55;9.70;99.90
19252;DHT22;9760;50.944;5.304;2024-01-30T06:29:21;9.70;99.90
19252;DHT22;9760;50.944;5.304;2024-01-30T06:31:47;9.70;99.90
19252;DHT22;9760;50.944;5.304;2024-01-30T06:34:12;9.70;99.90
19252;DHT22;9760;50.944;5.304;2024-01-30T06:36:38;9.70;99.90
19252;DHT22;9760;50.944;5.304;2024-01-30T06:39:04;9.70;99.90
19252;DHT22;9760;50.944;5.304;2024-01-30T06:41:31;9.70;99.90
19252;DHT22;9760;50.944;5.304;2024-01-30T06:43:56;9.60;99.90
19252;DHT22;9760;50.944;5.304;2024-01-30T06:46:22;9.60;99.90
19252;DHT22;9760;50.944;5.304;2024-01-30T06:48:48;9.60;99.90
19252;DHT22;9760;50.944;5.304;2024-01-30T06:51:13;9.60;99.90
19252;DHT22;9760;50.944;5.304;2024-01-30T06:53:39;9.60;99.90
19252;DHT22;9760;50.944;5.304;2024-01-30T06:56:05;9.70;99.90
19252;DHT22;9760;50.944;5.304;2024-01-30T06:58:31;9.70;99.90
19252;DHT22;9760;50.944;5.304;2024-01-30T07:00:58;9.70;99.90
19252;DHT22;9760;50.944;5.304;2024-01-30T07:03:24;9.70;99.90
19252;DHT22;9760;50.944;5.304;2024-01-30T07:05:50;9.70;99.90
19252;DHT22;9760;50.944;5.304;2024-01-30T07:08:16;9.80;99.90
19252;DHT22;9760;50.944;5.304;2024-01-30T07:10:46;9.80;99.90
19252;DHT22;9760;50.944;5.304;2024-01-30T07:13:12;9.90;99.90
19252;DHT22;9760;50.944;5.304;2024-01-30T07:15:38;9.90;99.90
19252;DHT22;9760;50.944;5.304;2024-01-30T07:18:05;9.90;99.90
19252;DHT22;9760;50.944;5.304;2024-01-30T07:20:31;10.00;99.90
19252;DHT22;9760;50.944;5.304;2024-01-30T07:23:00;10.00;99.90
19252;DHT22;9760;50.944;5.304;2024-01-30T07:25:26;9.90;99.90
19252;DHT22;9760;50.944;5.304;2024-01-30T07:27:55;10.00;99.90
19252;DHT22;9760;50.944;5.304;2024-01-30T07:30:21;10.00;99.90
19252;DHT22;9760;50.944;5.304;2024-01-30T07:32:47;9.90;99.90
19252;DHT22;9760;50.944;5.304;2024-01-30T07:35:13;9.90;99.90
19252;DHT22;9760;50.944;5.304;2024-01-30T07:37:39;9.90;99.90
19252;DHT22;9760;50.944;5.304;2024-01-30T07:40:06;9.90;99.90
19252;DHT22;9760;50.944;5.304;2024-01-30T07:42:32;10.00;99.90
19252;DHT22;9760;50.944;5.304;2024-01-30T07:44:58;10.00;99.90
19252;DHT22;9760;50.944;5.304;2024-01-30T07:47:24;10.00;99.90
19252;DHT22;9760;50.944;5.304;2024-01-30T07:49:50;10.00;99.90
19252;DHT22;9760;50.944;5.304;2024-01-30T07:52:16;10.00;99.90
19252;DHT22;9760;50.944;5.304;2024-01-30T07:54:42;10.10;99.90
19252;DHT22;9760;50.944;5.304;2024-01-30T07:57:07;10.10;99.90
19252;DHT22;9760;50.944;5.304;2024-01-30T07:59:33;10.10;99.90
19252;DHT22;9760;50.944;5.304;2024-01-30T08:01:59;10.20;99.90
19252;DHT22;9760;50.944;5.304;2024-01-30T08:04:24;10.20;99.90
19252;DHT22;9760;50.944;5.304;2024-01-30T08:06:50;10.20;99.90
19252;DHT22;9760;50.944;5.304;2024-01-30T08:09:15;10.20;99.90
19252;DHT22;9760;50.944;5.304;2024-01-30T08:11:41;10.20;99.90
19252;DHT22;9760;50.944;5.304;2024-01-30T08:14:07;10.30;99.90
19252;DHT22;9760;50.944;5.304;2024-01-30T08:16:32;10.30;99.90
19252;DHT22;9760;50.944;5.304;2024-01-30T08:18:58;10.30;99.90
19252;DHT22;9760;50.944;5.304;2024-01-30T08:21:24;10.30;99.90
19252;DHT22;9760;50.944;5.304;2024-01-30T08:23:49;10.30;99.90
19252;DHT22;9760;50.944;5.304;2024-01-30T08:26:15;10.40;99.90
19252;DHT22;9760;50.944;5.304;2024-01-30T08:28:41;10.40;99.90
19252;DHT22;9760;50.944;5.304;2024-01-30T08:31:07;10.40;99.90
19252;DHT22;9760;50.944;5.304;2024-01-30T08:33:32;10.40;99.90
19252;DHT22;9760;50.944;5.304;2024-01-30T08:35:59;10.40;99.90
19252;DHT22;9760;50.944;5.304;2024-01-30T08:38:25;10.40;99.90
19252;DHT22;9760;50.944;5.304;2024-01-30T08:40:50;10.40;99.90
19252;DHT22;9760;50.944;5.304;2024-01-30T08:43:16;10.40;99.90
19252;DHT22;9760;50.944;5.304;2024-01-30T08:45:42;10.50;99.90
19252;DHT22;9760;50.944;5.304;2024-01-30T08:48:07;10.50;99.90
19252;DHT22;9760;50.944;5.304;2024-01-30T08:50:33;10.50;99.90
19252;DHT22;9760;50.944;5.304;2024-01-30T08:52:59;10.50;99.90
19252;DHT22;9760;50.944;5.304;2024-01-30T08:55:25;10.50;99.90
19252;DHT22;9760;50.944;5.304;2024-01-30T08:57:51;10.50;99.90
19252;DHT22;9760;50.944;5.304;2024-01-30T09:00:17;10.60;99.90
19252;DHT22;9760;50.944;5.304;2024-01-30T09:02:44;10.60;99.90
19252;DHT22;9760;50.944;5.304;2024-01-30T09:05:10;10.60;99.90
19252;DHT22;9760;50.944;5.304;2024-01-30T09:07:35;10.70;99.90
19252;DHT22;9760;50.944;5.304;2024-01-30T09:10:01;10.70;99.90
19252;DHT22;9760;50.944;5.304;2024-01-30T09:12:26;10.70;99.90
19252;DHT22;9760;50.944;5.304;2024-01-30T09:14:52;10.70;99.90
19252;DHT22;9760;50.944;5.304;2024-01-30T09:17:18;10.80;99.90
19252;DHT22;9760;50.944;5.304;2024-01-30T09:19:44;10.80;99.90
19252;DHT22;9760;50.944;5.304;2024-01-30T09:22:09;10.80;99.90
19252;DHT22;9760;50.944;5.304;2024-01-30T09:24:35;10.90;99.90
19252;DHT22;9760;50.944;5.304;2024-01-30T09:27:00;10.90;99.90
19252;DHT22;9760;50.944;5.304;2024-01-30T09:29:26;10.90;99.90
19252;DHT22;9760;50.944;5.304;2024-01-30T09:31:52;10.90;99.90
19252;DHT22;9760;50.944;5.304;2024-01-30T09:34:17;11.00;99.90
19252;DHT22;9760;50.944;5.304;2024-01-30T09:36:43;11.00;99.90
19252;DHT22;9760;50.944;5.304;2024-01-30T09:39:09;11.00;99.90
19252;DHT22;9760;50.944;5.304;2024-01-30T09:41:45;11.10;99.90
19252;DHT22;9760;50.944;5.304;2024-01-30T09:44:12;11.10;99.90
19252;DHT22;9760;50.944;5.304;2024-01-30T09:46:38;11.20;99.90
19252;DHT22;9760;50.944;5.304;2024-01-30T09:49:04;11.30;99.90
19252;DHT22;9760;50.944;5.304;2024-01-30T09:51:32;11.30;99.90
19252;DHT22;9760;50.944;5.304;2024-01-30T09:53:58;11.30;99.90
19252;DHT22;9760;50.944;5.304;2024-01-30T09:56:24;11.40;99.90
19252;DHT22;9760;50.944;5.304;2024-01-30T09:58:50;11.40;99.90
19252;DHT22;9760;50.944;5.304;2024-01-30T10:01:17;11.50;99.90
19252;DHT22;9760;50.944;5.304;2024-01-30T10:03:44;11.50;99.90
19252;DHT22;9760;50.944;5.304;2024-01-30T10:06:11;11.50;99.90
19252;DHT22;9760;50.944;5.304;2024-01-30T10:08:37;11.60;99.90
19252;DHT22;9760;50.944;5.304;2024-01-30T10:11:03;11.60;99.90
19252;DHT22;9760;50.944;5.304;2024-01-30T10:13:29;11.70;99.90
19252;DHT22;9760;50.944;5.304;2024-01-30T10:15:55;11.70;99.90
19252;DHT22;9760;50.944;5.304;2024-01-30T10:18:24;11.80;99.90
19252;DHT22;9760;50.944;5.304;2024-01-30T10:20:51;11.80;99.90
19252;DHT22;9760;50.944;5.304;2024-01-30T10:23:17;11.80;99.90
19252;DHT22;9760;50.944;5.304;2024-01-30T10:25:43;11.80;99.90
19252;DHT22;9760;50.944;5.304;2024-01-30T10:28:09;11.80;99.90
19252;DHT22;9760;50.944;5.304;2024-01-30T10:30:35;11.80;99.90
19252;DHT22;9760;50.944;5.304;2024-01-30T10:33:00;11.80;99.90
19252;DHT22;9760;50.944;5.304;2024-01-30T10:35:26;11.80;99.90
19252;DHT22;9760;50.944;5.304;2024-01-30T10:37:52;11.80;99.90
19252;DHT22;9760;50.944;5.304;2024-01-30T10:40:19;11.80;99.90
19252;DHT22;9760;50.944;5.304;2024-01-30T10:42:47;11.80;99.90
19252;DHT22;9760;50.944;5.304;2024-01-30T10:45:13;11.80;99.90
19252;DHT22;9760;50.944;5.304;2024-01-30T10:47:40;11.80;99.90
19252;DHT22;9760;50.944;5.304;2024-01-30T10:50:08;11.80;99.90
19252;DHT22;9760;50.944;5.304;2024-01-30T10:52:34;11.80;99.90
19252;DHT22;9760;50.944;5.304;2024-01-30T10:55:00;11.90;99.90
19252;DHT22;9760;50.944;5.304;2024-01-30T10:57:27;11.80;99.90
19252;DHT22;9760;50.944;5.304;2024-01-30T10:59:56;11.80;99.90
19252;DHT22;9760;50.944;5.304;2024-01-30T11:02:23;11.80;99.90
19252;DHT22;9760;50.944;5.304;2024-01-30T11:04:49;11.80;99.90
19252;DHT22;9760;50.944;5.304;2024-01-30T11:07:19;11.80;99.90
19252;DHT22;9760;50.944;5.304;2024-01-30T11:12:25;11.80;99.90
19252;DHT22;9760;50.944;5.304;2024-01-30T11:15:12;11.80;99.90
19252;DHT22;9760;50.944;5.304;2024-01-30T11:17:53;11.70;99.90
19252;DHT22;9760;50.944;5.304;2024-01-30T11:20:21;11.70;99.90
19252;DHT22;9760;50.944;5.304;2024-01-30T11:22:50;11.70;99.90
19252;DHT22;9760;50.944;5.304;2024-01-30T11:25:18;11.70;99.90
19252;DHT22;9760;50.944;5.304;2024-01-30T11:27:45;11.70;99.90
19252;DHT22;9760;50.944;5.304;2024-01-30T11:30:29;11.70;99.90
19252;DHT22;9760;50.944;5.304;2024-01-30T11:33:14;11.70;99.90
19252;DHT22;9760;50.944;5.304;2024-01-30T11:35:41;11.70;99.90
19252;DHT22;9760;50.944;5.304;2024-01-30T11:38:11;11.70;99.90
19252;DHT22;9760;50.944;5.304;2024-01-30T11:40:39;11.70;99.90
19252;DHT22;9760;50.944;5.304;2024-01-30T11:43:07;11.70;99.90
19252;DHT22;9760;50.944;5.304;2024-01-30T11:45:33;11.60;99.90
19252;DHT22;9760;50.944;5.304;2024-01-30T11:48:00;11.70;99.90
19252;DHT22;9760;50.944;5.304;2024-01-30T11:50:38;11.70;99.90
19252;DHT22;9760;50.944;5.304;2024-01-30T11:53:04;11.70;99.90
19252;DHT22;9760;50.944;5.304;2024-01-30T11:55:30;11.80;99.90
19252;DHT22;9760;50.944;5.304;2024-01-30T11:58:00;11.90;99.90
19252;DHT22;9760;50.944;5.304;2024-01-30T12:00:26;11.90;99.90
19252;DHT22;9760;50.944;5.304;2024-01-30T12:02:53;11.90;99.90
19252;DHT22;9760;50.944;5.304;2024-01-30T12:05:24;11.90;99.90
19252;DHT22;9760;50.944;5.304;2024-01-30T12:07:51;11.90;99.90
19252;DHT22;9760;50.944;5.304;2024-01-30T12:10:17;11.90;99.90
19252;DHT22;9760;50.944;5.304;2024-01-30T12:12:48;11.90;99.90
19252;DHT22;9760;50.944;5.304;2024-01-30T12:15:15;11.90;99.90
19252;DHT22;9760;50.944;5.304;2024-01-30T12:17:41;11.80;99.90
19252;DHT22;9760;50.944;5.304;2024-01-30T12:20:10;11.80;99.90
19252;DHT22;9760;50.944;5.304;2024-01-30T12:22:47;11.80;99.90
19252;DHT22;9760;50.944;5.304;2024-01-30T12:25:17;11.80;99.90
19252;DHT22;9760;50.944;5.304;2024-01-30T12:27:46;11.80;99.90
19252;DHT22;9760;50.944;5.304;2024-01-30T12:30:15;11.70;99.90
19252;DHT22;9760;50.944;5.304;2024-01-30T12:32:42;11.60;99.90
19252;DHT22;9760;50.944;5.304;2024-01-30T12:35:15;11.60;99.90
19252;DHT22;9760;50.944;5.304;2024-01-30T12:37:43;11.60;99.90
19252;DHT22;9760;50.944;5.304;2024-01-30T12:40:10;11.50;99.90
19252;DHT22;9760;50.944;5.304;2024-01-30T12:42:37;11.50;99.90
19252;DHT22;9760;50.944;5.304;2024-01-30T12:45:04;11.60;99.90
19252;DHT22;9760;50.944;5.304;2024-01-30T12:47:30;11.60;99.90
19252;DHT22;9760;50.944;5.304;2024-01-30T12:49:56;11.60;99.90
19252;DHT22;9760;50.944;5.304;2024-01-30T12:52:22;11.60;99.90
19252;DHT22;9760;50.944;5.304;2024-01-30T12:54:48;11.60;99.90
19252;DHT22;9760;50.944;5.304;2024-01-30T12:57:14;11.60;99.90
19252;DHT22;9760;50.944;5.304;2024-01-30T12:59:40;11.60;99.90
19252;DHT22;9760;50.944;5.304;2024-01-30T13:02:07;11.70;99.90
19252;DHT22;9760;50.944;5.304;2024-01-30T13:04:32;11.70;99.90
19252;DHT22;9760;50.944;5.304;2024-01-30T13:06:58;11.70;99.90
19252;DHT22;9760;50.944;5.304;2024-01-30T13:09:26;11.70;99.90
19252;DHT22;9760;50.944;5.304;2024-01-30T13:11:52;11.70;99.90
19252;DHT22;9760;50.944;5.304;2024-01-30T13:14:18;11.80;99.90
19252;DHT22;9760;50.944;5.304;2024-01-30T13:16:44;11.80;99.90
19252;DHT22;9760;50.944;5.304;2024-01-30T13:19:10;11.70;99.90
19252;DHT22;9760;50.944;5.304;2024-01-30T13:21:35;11.70;99.90
19252;DHT22;9760;50.944;5.304;2024-01-30T13:24:01;11.70;99.90
19252;DHT22;9760;50.944;5.304;2024-01-30T13:26:27;11.70;99.90
19252;DHT22;9760;50.944;5.304;2024-01-30T13:28:53;11.60;99.90
19252;DHT22;9760;50.944;5.304;2024-01-30T13:31:19;11.60;99.90
19252;DHT22;9760;50.944;5.304;2024-01-30T13:33:45;11.60;99.90
19252;DHT22;9760;50.944;5.304;2024-01-30T13:36:11;11.50;99.90
19252;DHT22;9760;50.944;5.304;2024-01-30T13:38:37;11.50;99.90
19252;DHT22;9760;50.944;5.304;2024-01-30T13:41:03;11.40;99.90
19252;DHT22;9760;50.944;5.304;2024-01-30T13:43:29;11.30;99.90
19252;DHT22;9760;50.944;5.304;2024-01-30T13:45:55;11.20;99.90
19252;DHT22;9760;50.944;5.304;2024-01-30T13:48:20;11.10;99.90
19252;DHT22;9760;50.944;5.304;2024-01-30T13:50:47;11.10;99.90
19252;DHT22;9760;50.944;5.304;2024-01-30T13:53:14;11.00;99.90
19252;DHT22;9760;50.944;5.304;2024-01-30T13:55:40;11.00;99.90
19252;DHT22;9760;50.944;5.304;2024-01-30T13:58:06;11.00;99.90
19252;DHT22;9760;50.944;5.304;2024-01-30T14:00:33;11.00;99.90
19252;DHT22;9760;50.944;5.304;2024-01-30T14:02:59;11.00;99.90
19252;DHT22;9760;50.944;5.304;2024-01-30T14:05:26;11.00;99.90
19252;DHT22;9760;50.944;5.304;2024-01-30T14:07:53;11.10;99.90
19252;DHT22;9760;50.944;5.304;2024-01-30T14:10:19;11.10;99.90
19252;DHT22;9760;50.944;5.304;2024-01-30T14:12:45;11.10;99.90
19252;DHT22;9760;50.944;5.304;2024-01-30T14:15:12;11.20;99.90
19252;DHT22;9760;50.944;5.304;2024-01-30T14:17:43;11.20;99.90
19252;DHT22;9760;50.944;5.304;2024-01-30T14:20:09;11.20;99.90
19252;DHT22;9760;50.944;5.304;2024-01-30T14:22:36;11.20;99.90
19252;DHT22;9760;50.944;5.304;2024-01-30T14:25:02;11.20;99.90
19252;DHT22;9760;50.944;5.304;2024-01-30T14:27:29;11.20;99.90
19252;DHT22;9760;50.944;5.304;2024-01-30T14:29:56;11.20;99.90
19252;DHT22;9760;50.944;5.304;2024-01-30T14:32:22;11.20;99.90
19252;DHT22;9760;50.944;5.304;2024-01-30T14:34:49;11.20;99.90
19252;DHT22;9760;50.944;5.304;2024-01-30T14:37:15;11.30;99.90
19252;DHT22;9760;50.944;5.304;2024-01-30T14:39:40;11.30;99.90
19252;DHT22;9760;50.944;5.304;2024-01-30T14:42:07;11.20;99.90
19252;DHT22;9760;50.944;5.304;2024-01-30T14:44:33;11.10;99.90
19252;DHT22;9760;50.944;5.304;2024-01-30T14:46:59;11.00;99.90
19252;DHT22;9760;50.944;5.304;2024-01-30T14:49:25;11.00;99.90
19252;DHT22;9760;50.944;5.304;2024-01-30T14:51:51;11.10;99.90
19252;DHT22;9760;50.944;5.304;2024-01-30T14:54:17;11.10;99.90
19252;DHT22;9760;50.944;5.304;2024-01-30T14:56:44;11.10;99.90
19252;DHT22;9760;50.944;5.304;2024-01-30T14:59:10;11.00;99.90
19252;DHT22;9760;50.944;5.304;2024-01-30T15:01:35;11.10;99.90
19252;DHT22;9760;50.944;5.304;2024-01-30T15:04:01;11.10;99.90
19252;DHT22;9760;50.944;5.304;2024-01-30T15:06:27;11.00;99.90
19252;DHT22;9760;50.944;5.304;2024-01-30T15:08:53;11.00;99.90
19252;DHT22;9760;50.944;5.304;2024-01-30T15:11:19;11.00;99.90
19252;DHT22;9760;50.944;5.304;2024-01-30T15:13:44;10.90;99.90
19252;DHT22;9760;50.944;5.304;2024-01-30T15:16:10;10.90;99.90
19252;DHT22;9760;50.944;5.304;2024-01-30T15:18:36;10.90;99.90
19252;DHT22;9760;50.944;5.304;2024-01-30T15:21:02;10.80;99.90
19252;DHT22;9760;50.944;5.304;2024-01-30T15:23:27;10.80;99.90
19252;DHT22;9760;50.944;5.304;2024-01-30T15:25:53;10.80;99.90
19252;DHT22;9760;50.944;5.304;2024-01-30T15:28:19;10.80;99.90
19252;DHT22;9760;50.944;5.304;2024-01-30T15:30:46;10.70;99.90
19252;DHT22;9760;50.944;5.304;2024-01-30T15:33:12;10.70;99.90
19252;DHT22;9760;50.944;5.304;2024-01-30T15:35:37;10.70;99.90
19252;DHT22;9760;50.944;5.304;2024-01-30T15:38:04;10.70;99.90
19252;DHT22;9760;50.944;5.304;2024-01-30T15:40:36;10.70;99.90
19252;DHT22;9760;50.944;5.304;2024-01-30T15:43:02;10.70;99.90
19252;DHT22;9760;50.944;5.304;2024-01-30T15:45:28;10.70;99.90
19252;DHT22;9760;50.944;5.304;2024-01-30T15:47:53;10.70;99.90
19252;DHT22;9760;50.944;5.304;2024-01-30T15:50:19;10.60;99.90